EGPN/DND METAR and TAF weather

Enter ICAO airport designator
Station Type Date Time Source
EGPN METAR 2020/07/13 19:20 UTC NOAA

EGPN 131920Z 26017KT 9999 FEW020 17/11 Q1014


Station Type Date Time Source
EGPN Decoded METAR 2020/07/13 19:20 UTC NOAA

Dundee / Riverside, United Kingdom (EGPN) 56-27N 003-01W
Jul 13, 2020 - 03:20 PM EDT / 2020.07.13 1920 UTC
Wind: from the W (260 degrees) at 20 MPH (17 KT):0
Visibility: greater than 7 mile(s):0
Sky conditions: mostly clear
Temperature: 62 F (17 C)
Dew Point: 51 F (11 C)
Relative Humidity: 67%
Pressure (altimeter): 29.94 in. Hg (1014 hPa)
ob: EGPN 131920Z 26017KT 9999 FEW020 17/11 Q1014
cycle: 19

Station Type Date Time Source
EGPN TAF 2019/01/15 18:56 UTC NOAA

TAF EGPN 151750Z 1518/1621 CNL

Example: see airport list